Time;durP1;ratioP1;P1;durP2;ratioP2;P2;SDS_P1;SDS_P2;PMS_P1;PMS_P2;Temp;Humidity;BMP_temperature;BMP_pressure;BME280_temperature;BME280_humidity;BME280_pressure;Samples;Min_cycle;Max_cycle;Signal;HPM_P1;HPM_P2
2022/08/17 00:01:39;;;;;;;4.95;2.42;;;;;;;28.45;42.31;98439.59;6217358;23;20211;-89
2022/08/17 00:04:05;;;;;;;5.75;2.60;;;;;;;28.43;41.91;98435.44;6217250;23;20177;-88
2022/08/17 00:06:30;;;;;;;5.63;2.70;;;;;;;28.34;42.24;98429.44;6190698;23;20244;-88
2022/08/17 00:09:01;;;;;;;4.60;2.47;;;;;;;28.30;42.15;98430.88;6217003;23;20157;-88
2022/08/17 00:11:33;;;;;;;6.60;2.40;;;;;;;28.28;42.28;98429.44;6190754;23;20142;-88
2022/08/17 00:14:03;;;;;;;3.80;2.35;;;;;;;28.25;42.04;98429.88;6217288;23;20573;-88
2022/08/17 00:16:35;;;;;;;5.78;2.40;;;;;;;28.32;41.94;98430.69;6190603;23;20220;-88
2022/08/17 00:19:04;;;;;;;6.75;2.85;;;;;;;28.35;41.45;98425.72;6216887;23;20573;-88
2022/08/17 00:21:31;;;;;;;4.20;2.40;;;;;;;28.34;42.21;98424.06;6190682;23;20245;-88
2022/08/17 00:23:58;;;;;;;3.28;2.40;;;;;;;28.33;42.13;98418.88;6190826;23;20192;-89
2022/08/17 00:26:25;;;;;;;4.32;2.47;;;;;;;28.27;43.16;98422.41;6217440;23;20209;-88
2022/08/17 00:28:50;;;;;;;4.88;3.00;;;;;;;28.32;42.79;98423.44;6216716;23;20162;-88
2022/08/17 00:31:16;;;;;;;5.38;2.65;;;;;;;28.34;43.09;98417.81;6217059;23;20149;-88
2022/08/17 00:33:44;;;;;;;5.22;2.72;;;;;;;28.27;43.13;98417.03;6217099;23;20142;-88
2022/08/17 00:36:10;;;;;;;4.43;2.63;;;;;;;28.13;42.88;98410.81;6216915;23;20161;-88
2022/08/17 00:38:36;;;;;;;6.18;2.78;;;;;;;28.11;43.08;98410.22;6217371;23;20145;-88
2022/08/17 00:41:10;;;;;;;5.50;2.38;;;;;;;27.96;43.03;98402.28;6216646;23;20156;-88
2022/08/17 00:43:46;;;;;;;5.00;2.65;;;;;;;27.88;43.37;98407.09;6216654;23;20551;-88
2022/08/17 00:46:20;;;;;;;4.00;2.13;;;;;;;27.74;43.29;98402.72;6216650;23;20146;-88
2022/08/17 00:48:46;;;;;;;3.95;2.45;;;;;;;27.76;44.03;98406.88;6216583;23;20148;-88
2022/08/17 00:51:18;;;;;;;5.30;3.08;;;;;;;27.74;43.63;98408.13;6216395;23;20162;-88
2022/08/17 00:53:48;;;;;;;5.28;2.40;;;;;;;27.72;44.18;98402.94;6217093;23;20566;-88
2022/08/17 00:56:21;;;;;;;5.80;2.67;;;;;;;27.68;43.81;98407.06;6216580;23;20172;-88
2022/08/17 00:58:48;;;;;;;5.35;2.65;;;;;;;27.68;44.24;98411.63;6190160;23;20150;-88
2022/08/17 01:01:14;;;;;;;7.63;2.80;;;;;;;27.75;44.05;98412.47;6190788;23;20232;-88
2022/08/17 01:03:42;;;;;;;7.50;3.00;;;;;;;27.70;43.87;98405.00;6190179;23;20287;-88
2022/08/17 01:06:09;;;;;;;5.70;3.15;;;;;;;27.82;43.68;98403.38;6216435;23;20146;-88
2022/08/17 01:08:35;;;;;;;7.68;2.92;;;;;;;27.82;43.72;98397.13;6216657;23;20154;-88
2022/08/17 01:11:01;;;;;;;6.10;2.80;;;;;;;27.83;43.24;98393.41;6216723;23;20150;-88
2022/08/17 01:13:31;;;;;;;4.15;2.42;;;;;;;27.88;43.08;98391.72;6216342;23;20142;-88
2022/08/17 01:16:02;;;;;;;5.38;2.72;;;;;;;27.87;43.04;98386.56;6216622;23;20156;-87
2022/08/17 01:18:28;;;;;;;4.93;2.50;;;;;;;27.89;42.50;98384.47;6216683;23;20144;-88
2022/08/17 01:20:57;;;;;;;9.43;3.03;;;;;;;27.90;42.50;98381.59;6189782;23;20158;-88
2022/08/17 01:23:24;;;;;;;5.82;2.75;;;;;;;27.93;42.16;98385.75;6215875;23;20177;-88
2022/08/17 01:26:04;;;;;;;4.18;2.45;;;;;;;27.92;42.46;98382.22;6214128;23;20157;-88
2022/08/17 01:28:33;;;;;;;5.30;2.45;;;;;;;28.01;42.38;98385.53;6189647;23;20157;-88
2022/08/17 01:31:01;;;;;;;6.40;2.60;;;;;;;27.97;42.36;98384.28;6189381;23;20181;-88
2022/08/17 01:33:27;;;;;;;4.90;2.95;;;;;;;27.92;42.37;98371.44;6189288;23;20150;-88
2022/08/17 01:35:52;;;;;;;4.90;2.40;;;;;;;27.84;42.12;98381.59;6215218;23;20146;-88
2022/08/17 01:38:18;;;;;;;4.80;2.47;;;;;;;27.76;42.19;98379.09;6215258;23;20156;-88
2022/08/17 01:40:56;;;;;;;5.38;2.55;;;;;;;27.83;41.96;98374.56;6215430;23;20456;-88
2022/08/17 01:43:28;;;;;;;5.18;2.70;;;;;;;27.84;41.94;98368.13;6190016;23;20177;-87
2022/08/17 01:45:55;;;;;;;5.00;2.35;;;;;;;27.90;42.09;98372.69;6215557;23;20570;-88
2022/08/17 01:48:22;;;;;;;5.40;2.33;;;;;;;27.88;42.23;98375.56;6188801;23;20169;-88
2022/08/17 01:50:50;;;;;;;8.27;2.50;;;;;;;27.89;42.01;98371.03;6215723;23;20166;-88
2022/08/17 01:53:20;;;;;;;4.68;2.63;;;;;;;27.88;42.35;98374.78;6215672;23;20150;-88
2022/08/17 01:55:58;;;;;;;5.43;3.22;;;;;;;27.79;42.64;98381.38;6215839;23;20573;-88
2022/08/17 01:58:24;;;;;;;5.10;2.50;;;;;;;27.73;42.73;98385.75;6215447;23;20215;-88
2022/08/17 02:00:52;;;;;;;4.43;2.50;;;;;;;27.75;42.96;98386.34;6215782;23;20184;-88
2022/08/17 02:03:19;;;;;;;4.57;2.35;;;;;;;27.76;43.15;98384.50;6215395;23;20188;-88
2022/08/17 02:05:47;;;;;;;5.35;2.58;;;;;;;27.67;42.96;98391.13;6215762;23;20150;-88
2022/08/17 02:08:14;;;;;;;5.13;2.85;;;;;;;27.56;43.66;98392.59;6189337;23;20194;-88
2022/08/17 02:10:39;;;;;;;5.38;2.63;;;;;;;27.47;43.86;98387.59;6189361;23;20290;-88
2022/08/17 02:13:05;;;;;;;4.35;2.72;;;;;;;27.36;44.06;98395.22;6189489;23;20181;-88
2022/08/17 02:15:32;;;;;;;5.63;3.03;;;;;;;27.24;44.34;98398.72;6215245;23;20220;-88
2022/08/17 02:17:58;;;;;;;10.93;3.03;;;;;;;27.06;44.36;98399.31;6189241;23;20200;-88
2022/08/17 02:20:23;;;;;;;5.13;2.33;;;;;;;27.07;44.39;98400.94;6215444;23;20150;-88
2022/08/17 02:22:49;;;;;;;5.20;3.10;;;;;;;27.03;44.73;98407.78;6215166;23;20262;-89
2022/08/17 02:25:19;;;;;;;5.57;2.90;;;;;;;26.99;44.94;98401.13;6215301;23;20515;-88
2022/08/17 02:27:45;;;;;;;4.88;2.45;;;;;;;26.82;45.47;98392.59;6189312;23;20173;-88
2022/08/17 02:30:13;;;;;;;7.05;2.90;;;;;;;26.88;45.13;98392.84;6215272;23;20153;-88
2022/08/17 02:32:39;;;;;;;4.45;2.78;;;;;;;26.85;45.39;98394.06;6215537;23;20146;-88
2022/08/17 02:35:06;;;;;;;6.10;3.25;;;;;;;26.59;46.34;98392.06;6215996;23;20160;-88
2022/08/17 02:37:31;;;;;;;4.37;2.43;;;;;;;26.36;46.21;98382.66;6215420;23;20156;-88
2022/08/17 02:39:58;;;;;;;8.18;2.45;;;;;;;26.42;46.19;98382.66;6215830;23;20185;-88
2022/08/17 02:42:33;;;;;;;10.00;2.73;;;;;;;26.40;46.41;98381.22;6214942;23;20203;-88
2022/08/17 02:45:00;;;;;;;5.07;2.63;;;;;;;26.49;45.86;98385.41;6215655;23;20137;-89
2022/08/17 02:47:26;;;;;;;3.83;2.40;;;;;;;26.47;45.92;98382.06;6189454;23;20154;-88
2022/08/17 02:49:53;;;;;;;5.43;2.63;;;;;;;26.40;46.17;98367.78;6188962;23;20184;-88
2022/08/17 02:52:19;;;;;;;5.33;2.77;;;;;;;26.48;46.00;98381.06;6216062;23;20220;-89
2022/08/17 02:54:44;;;;;;;4.47;2.33;;;;;;;26.48;46.04;98389.13;6215582;23;20225;-88
2022/08/17 02:57:10;;;;;;;4.33;2.03;;;;;;;26.59;46.19;98384.00;6215459;23;20150;-88
2022/08/17 02:59:37;;;;;;;4.93;2.30;;;;;;;26.67;46.08;98385.69;6216425;23;20149;-89
2022/08/17 03:02:05;;;;;;;4.20;2.42;;;;;;;26.70;46.55;98383.41;6217859;23;20149;-88
2022/08/17 03:04:30;;;;;;;8.20;2.73;;;;;;;26.71;46.10;98384.25;6217371;23;20211;-88
2022/08/17 03:06:56;;;;;;;5.40;2.60;;;;;;;26.71;46.23;98387.78;6191099;23;20149;-88
2022/08/17 03:09:21;;;;;;;4.50;2.47;;;;;;;26.71;45.83;98386.94;6217210;23;20227;-88
2022/08/17 03:11:48;;;;;;;5.43;2.33;;;;;;;26.65;46.23;98393.94;6217446;23;20215;-88
2022/08/17 03:14:13;;;;;;;5.83;2.40;;;;;;;26.60;46.25;98391.03;6217846;23;20143;-88
2022/08/17 03:16:39;;;;;;;5.00;2.85;;;;;;;26.58;46.42;98408.38;6217294;23;20150;-88
2022/08/17 03:19:05;;;;;;;6.93;2.10;;;;;;;26.58;46.68;98403.84;6217213;23;20173;-88
2022/08/17 03:21:30;;;;;;;6.82;2.72;;;;;;;26.52;47.11;98409.22;6217454;23;20212;-88
2022/08/17 03:23:56;;;;;;;4.90;2.60;;;;;;;26.47;46.88;98403.56;6190831;23;20181;-88
2022/08/17 03:26:21;;;;;;;5.00;2.23;;;;;;;26.50;46.62;98405.84;6191072;23;20158;-88
2022/08/17 03:28:47;;;;;;;4.70;2.65;;;;;;;26.43;46.84;98402.31;6217201;23;20146;-89
2022/08/17 03:31:12;;;;;;;7.55;2.15;;;;;;;26.41;46.95;98404.38;6217195;23;20236;-88
2022/08/17 03:33:38;;;;;;;4.53;2.63;;;;;;;26.41;47.33;98412.44;6190818;23;20161;-88
2022/08/17 03:36:04;;;;;;;6.30;2.22;;;;;;;26.45;47.22;98409.16;6190764;23;20586;-88
2022/08/17 03:38:29;;;;;;;5.57;2.67;;;;;;;26.48;47.38;98413.31;6216836;23;20149;-88
2022/08/17 03:40:55;;;;;;;6.03;2.80;;;;;;;26.50;46.92;98420.13;6216574;23;20628;-88
2022/08/17 03:43:21;;;;;;;4.65;2.10;;;;;;;26.57;46.63;98420.19;6216754;23;20595;-88
2022/08/17 03:57:00;;;;;;;5.00;2.30;;;;;;;26.51;46.95;98418.28;6216366;23;20294;-88
2022/08/17 03:59:26;;;;;;;7.13;2.90;;;;;;;26.62;46.43;98418.56;6217118;23;20141;-88
2022/08/17 04:01:54;;;;;;;6.77;2.37;;;;;;;26.67;46.55;98426.03;6216909;23;20211;-88
2022/08/17 04:04:20;;;;;;;3.83;2.30;;;;;;;26.76;46.35;98424.81;6216445;23;20174;-88
2022/08/17 04:06:45;;;;;;;7.57;2.33;;;;;;;26.70;46.28;98428.31;6216658;23;20153;-88
2022/08/17 04:09:11;;;;;;;5.40;2.20;;;;;;;26.72;46.26;98427.09;6216776;23;20146;-90
2022/08/17 04:11:37;;;;;;;4.90;2.20;;;;;;;26.70;46.55;98426.44;6216174;23;20573;-88
2022/08/17 04:14:04;;;;;;;6.27;2.30;;;;;;;26.79;46.11;98427.97;6216743;23;20212;-88
2022/08/17 04:16:31;;;;;;;7.00;2.60;;;;;;;26.81;46.18;98436.66;6190486;23;20149;-89
2022/08/17 04:18:56;;;;;;;5.33;2.73;;;;;;;26.82;46.18;98424.88;6190678;23;20624;-89
2022/08/17 04:21:22;;;;;;;4.43;1.93;;;;;;;26.86;46.25;98433.34;6216759;23;20173;-88
2022/08/17 04:23:48;;;;;;;4.87;2.23;;;;;;;26.91;45.98;98430.91;6216310;23;20253;-87
2022/08/17 04:26:14;;;;;;;4.87;2.57;;;;;;;26.94;46.02;98440.44;6216638;23;20173;-88
2022/08/17 04:28:40;;;;;;;7.93;2.58;;;;;;;26.98;45.83;98441.69;6216677;23;20149;-88
2022/08/17 04:31:08;;;;;;;6.30;3.00;;;;;;;26.96;45.81;98449.97;6216353;23;20149;-90
2022/08/17 04:33:34;;;;;;;4.80;2.67;;;;;;;26.97;46.32;98451.63;6216376;23;20142;-90
2022/08/17 04:36:12;;;;;;;;;;;;;;;;;;;;;
2022/08/17 04:38:41;;;;;;;4.67;2.60;;;;;;;26.87;46.94;98443.09;6216664;23;20228;-89
2022/08/17 04:43:54;;;;;;;4.80;2.67;;;;;;;27.08;46.75;98447.50;6216676;23;20236;-89
2022/08/17 04:46:23;;;;;;;8.77;2.65;;;;;;;27.19;46.12;98449.63;6216218;23;20609;-88
2022/08/17 04:48:51;;;;;;;4.83;2.27;;;;;;;27.20;46.32;98457.47;6216320;23;20146;-88
2022/08/17 04:51:24;;;;;;;5.70;3.00;;;;;;;27.19;46.35;98455.84;6215899;23;20166;-88
2022/08/17 04:53:54;;;;;;;6.77;2.20;;;;;;;27.34;46.28;98452.97;6189904;23;20487;-89
2022/08/17 04:56:19;;;;;;;3.22;2.15;;;;;;;27.35;46.64;98455.47;6216023;23;20225;-89
2022/08/17 04:58:47;;;;;;;4.00;2.28;;;;;;;27.49;46.49;98455.53;6216455;23;20247;-89
2022/08/17 05:01:14;;;;;;;5.05;2.60;;;;;;;27.59;45.94;98454.09;6216048;23;20229;-88
2022/08/17 05:03:42;;;;;;;5.82;2.65;;;;;;;27.76;45.54;98451.81;6216040;23;20177;-89
2022/08/17 05:06:07;;;;;;;4.03;2.20;;;;;;;27.83;44.92;98460.75;6215962;23;20146;-88
2022/08/17 05:08:33;;;;;;;6.07;2.35;;;;;;;27.87;45.41;98459.28;6217012;23;20180;-88
2022/08/17 05:10:59;;;;;;;4.88;2.53;;;;;;;28.03;45.03;98453.53;6216189;23;20150;-88
2022/08/17 05:13:26;;;;;;;3.95;2.38;;;;;;;28.21;44.64;98455.59;6190138;23;20180;-89
2022/08/17 05:15:57;;;;;;;5.13;2.33;;;;;;;28.41;44.57;98462.59;6215921;23;20150;-89
2022/08/17 05:18:23;;;;;;;6.43;2.67;;;;;;;28.54;44.35;98461.75;6216376;23;20149;-88
2022/08/17 05:20:49;;;;;;;4.18;2.25;;;;;;;28.62;44.02;98467.78;6215695;23;20174;-89
2022/08/17 05:23:17;;;;;;;6.55;2.33;;;;;;;28.67;43.54;98475.22;6215447;23;20731;-89
2022/08/17 05:25:48;;;;;;;4.07;2.38;;;;;;;28.76;43.48;98475.81;6215708;23;20169;-89
2022/08/17 05:28:26;;;;;;;5.53;2.55;;;;;;;28.72;43.34;98474.59;6215971;23;20561;-91
2022/08/17 05:31:45;;;;;;;3.47;2.17;;;;;;;28.52;42.87;98475.44;6190023;23;20244;-90
2022/08/17 05:34:27;;;;;;;6.18;2.25;;;;;;;28.61;43.34;98478.75;6207662;23;20149;-91
2022/08/17 05:37:20;;;;;;;4.72;2.50;;;;;;;28.74;42.90;98483.31;6189697;23;20202;-92
2022/08/17 05:39:45;;;;;;;5.55;2.90;;;;;;;28.73;43.76;98476.25;6216258;23;20177;-89
2022/08/17 05:42:21;;;;;;;6.47;3.33;;;;;;;28.83;43.10;98482.03;6215938;23;20150;-90
2022/08/17 05:44:56;;;;;;;9.65;2.40;;;;;;;28.68;43.40;98474.19;6215670;23;20252;-91
2022/08/17 05:47:23;;;;;;;5.13;2.55;;;;;;;28.67;43.49;98482.50;6215775;23;20157;-89
2022/08/17 05:49:49;;;;;;;3.08;1.75;;;;;;;28.47;44.24;98477.94;6189649;23;20253;-89
2022/08/17 05:52:52;;;;;;;6.00;2.78;;;;;;;28.55;43.98;98482.28;6189844;23;20700;-90
2022/08/17 05:56:00;;;;;;;5.63;2.30;;;;;;;28.44;43.74;98478.34;6216008;23;20160;-92
2022/08/17 05:58:44;;;;;;;6.45;3.15;;;;;;;28.44;43.52;98477.53;6216537;23;20142;-91
2022/08/17 06:01:48;;;;;;;3.72;2.20;;;;;;;28.51;43.28;98478.38;6190398;23;20145;-90
2022/08/17 06:04:45;;;;;;;4.30;2.63;;;;;;;28.68;43.08;98489.53;6189386;23;20605;-90
2022/08/17 06:10:48;;;;;;;4.07;2.25;;;;;;;28.71;42.77;98494.53;6066518;23;20601;-90
2022/08/17 06:13:51;;;;;;;5.25;2.67;;;;;;;28.80;43.12;98494.06;6185923;23;20161;-90
2022/08/17 06:16:23;;;;;;;7.38;2.58;;;;;;;28.87;42.79;98499.47;6215916;23;20199;-89
2022/08/17 06:20:15;;;;;;;5.25;2.58;;;;;;;29.10;42.61;98497.09;6216598;23;20138;-89
2022/08/17 06:22:52;;;;;;;5.47;2.67;;;;;;;29.07;42.25;98497.50;6198490;23;20160;-91
2022/08/17 06:25:50;;;;;;;6.82;2.88;;;;;;;29.04;42.82;98495.22;6214249;23;20235;-91
2022/08/17 06:28:27;;;;;;;5.25;2.28;;;;;;;29.10;42.17;98499.78;6195513;23;20645;-90
2022/08/17 06:33:45;;;;;;;5.43;2.45;;;;;;;29.39;42.89;98501.13;6215953;23;20192;-90
2022/08/17 06:36:54;;;;;;;6.82;2.85;;;;;;;29.47;41.60;98501.72;6216252;23;20149;-91
2022/08/17 06:39:38;;;;;;;6.53;2.38;;;;;;;29.36;43.55;98497.00;6190624;23;20146;-89
2022/08/17 06:42:29;;;;;;;6.38;2.78;;;;;;;29.53;42.36;98505.44;6215715;23;20153;-89
2022/08/17 06:45:30;;;;;;;3.97;2.30;;;;;;;29.57;42.28;98503.94;6189511;23;20165;-88
2022/08/17 06:48:30;;;;;;;5.18;2.33;;;;;;;29.61;43.12;98497.88;6215541;23;20149;-89
2022/08/17 06:51:02;;;;;;;5.82;2.80;;;;;;;29.51;42.55;98489.44;6166944;23;20197;-89
2022/08/17 06:53:33;;;;;;;3.78;2.15;;;;;;;29.70;40.96;98495.75;6191368;23;20180;-93
2022/08/17 06:56:09;;;;;;;4.35;2.08;;;;;;;29.94;41.87;98481.50;6191814;23;20165;-94
2022/08/17 06:58:37;;;;;;;6.85;2.63;;;;;;;30.30;40.56;98481.59;6190666;23;20212;-92
2022/08/17 07:01:08;;;;;;;6.38;2.58;;;;;;;30.51;40.07;98477.66;6193056;23;20244;-94
2022/08/17 07:04:39;;;;;;;;;;;;;;;;;;;;;
2022/08/17 07:17:59;;;;;;;4.45;2.40;;;;;;;32.23;36.89;98488.75;6083683;23;20243;-95
2022/08/17 07:24:34;;;;;;;4.68;2.03;;;;;;;32.45;36.47;98480.84;6125138;23;20196;-95
2022/08/17 07:27:49;;;;;;;;;;;;;;;;;;;;;
2022/08/17 07:30:46;;;;;;;;;;;;;;;;;;;;;
2022/08/17 07:33:59;;;;;;;4.25;1.85;;;;;;;32.59;35.97;98479.59;6125467;23;20234;-94
2022/08/17 07:37:06;;;;;;;5.75;2.70;;;;;;;32.55;35.28;98487.38;6049901;23;20156;-95
2022/08/17 07:51:18;;;;;;;7.03;2.63;;;;;;;33.60;32.16;98479.00;5983833;24;20190;-95
2022/08/17 07:54:47;;;;;;;3.83;2.13;;;;;;;33.90;32.02;98468.66;5865041;24;20268;-94
2022/08/17 07:57:18;;;;;;;3.80;2.17;;;;;;;34.11;33.12;98465.25;5899661;24;20157;-94
2022/08/17 08:13:28;;;;;;;3.17;1.58;;;;;;;35.38;29.75;98460.47;5875212;24;20166;-95
2022/08/17 08:16:28;;;;;;;;;;;;;;;;;;;;;
2022/08/17 08:18:59;;;;;;;4.72;1.90;;;;;;;36.03;29.49;98451.34;6066646;23;20636;-95
2022/08/17 08:22:29;;;;;;;4.68;1.85;;;;;;;36.42;27.72;98460.09;6101875;23;20179;-95
2022/08/17 08:25:58;;;;;;;;;;;;;;;;;;;;;
2022/08/17 08:28:42;;;;;;;4.72;2.13;;;;;;;36.27;28.70;98447.16;6126499;23;20544;-93
2022/08/17 08:32:11;;;;;;;4.03;1.92;;;;;;;36.66;28.01;98445.78;6211063;23;20191;-94
2022/08/17 08:35:15;;;;;;;4.40;2.15;;;;;;;37.00;27.84;98457.19;6191183;23;20154;-93
2022/08/17 08:38:06;;;;;;;3.53;1.90;;;;;;;37.06;27.50;98449.81;6218342;23;20208;-93
2022/08/17 08:41:09;;;;;;;3.83;1.90;;;;;;;37.15;27.50;98449.03;6191621;23;20157;-94
2022/08/17 08:43:59;;;;;;;2.30;1.30;;;;;;;37.13;27.33;98440.31;6190987;23;20181;-94
2022/08/17 08:46:46;;;;;;;3.03;1.50;;;;;;;37.46;26.13;98439.88;6217091;23;20197;-93
2022/08/17 08:49:38;;;;;;;2.65;1.67;;;;;;;37.89;26.93;98444.06;6216882;23;20141;-93
2022/08/17 08:52:41;;;;;;;2.95;1.55;;;;;;;37.86;26.60;98439.13;6068020;23;20238;-94
2022/08/17 08:55:42;;;;;;;2.35;1.25;;;;;;;38.03;25.79;98434.19;6176158;23;20224;-93
2022/08/17 08:58:42;;;;;;;3.17;1.70;;;;;;;38.23;25.36;98438.00;6190322;23;20581;-93
2022/08/17 09:01:24;;;;;;;4.95;1.92;;;;;;;38.42;25.98;98436.38;6217014;23;20146;-92
2022/08/17 09:04:34;;;;;;;3.40;1.85;;;;;;;38.70;24.97;98435.75;6165793;23;20178;-90
2022/08/17 09:07:17;;;;;;;3.90;1.75;;;;;;;38.80;25.61;98427.50;6172912;23;20153;-93
2022/08/17 09:09:53;;;;;;;3.80;1.90;;;;;;;38.68;24.60;98430.53;6191022;23;20150;-92
2022/08/17 09:15:59;;;;;;;5.80;1.60;;;;;;;38.41;24.68;98437.47;6217573;23;20145;-94
2022/08/17 09:18:26;;;;;;;3.38;1.73;;;;;;;38.47;24.74;98434.41;6215544;23;20484;-94
2022/08/17 09:21:31;;;;;;;3.83;1.35;;;;;;;38.56;23.88;98432.75;6191218;23;20153;-96
2022/08/17 09:24:47;;;;;;;3.00;1.60;;;;;;;38.68;23.75;98426.97;6190330;23;20204;-95
2022/08/17 09:27:53;;;;;;;4.70;1.80;;;;;;;38.62;23.92;98419.88;6190947;23;20153;-93
2022/08/17 09:30:20;;;;;;;3.15;1.42;;;;;;;38.73;23.48;98424.22;6216925;23;20153;-92
2022/08/17 09:32:54;;;;;;;2.35;1.40;;;;;;;38.90;22.77;98416.50;6216414;23;20517;-92
2022/08/17 09:35:29;;;;;;;3.10;2.08;;;;;;;38.92;24.27;98422.50;6190647;23;20229;-92
2022/08/17 09:38:36;;;;;;;3.33;2.03;;;;;;;38.95;23.54;98418.38;6217075;23;20138;-94
2022/08/17 09:41:27;;;;;;;4.28;1.63;;;;;;;39.05;22.81;98424.66;6174098;23;20149;-94
2022/08/17 09:47:21;;;;;;;7.13;2.05;;;;;;;38.86;22.21;98420.91;6206191;23;20219;-91
2022/08/17 09:49:59;;;;;;;3.50;1.70;;;;;;;38.97;22.91;98408.78;6216377;23;20161;-91
2022/08/17 09:52:28;;;;;;;4.45;1.77;;;;;;;39.14;22.79;98403.78;6216863;23;20134;-91
2022/08/17 09:59:12;;;;;;;2.85;1.60;;;;;;;38.36;22.52;98410.91;6125587;23;20160;-95
2022/08/17 10:02:25;;;;;;;3.40;1.92;;;;;;;38.98;21.78;98406.88;6137506;23;20604;-93
2022/08/17 10:05:28;;;;;;;2.55;1.30;;;;;;;39.57;21.73;98412.31;6189662;23;20185;-94
2022/08/17 10:08:13;;;;;;;3.92;1.70;;;;;;;39.78;21.51;98400.13;6190013;23;20169;-90
2022/08/17 10:10:58;;;;;;;4.07;1.83;;;;;;;39.96;22.27;98393.91;6189796;23;20165;-91
2022/08/17 10:13:55;;;;;;;4.82;1.80;;;;;;;40.08;21.86;98396.28;6216124;23;20511;-93
2022/08/17 10:17:17;;;;;;;3.17;1.60;;;;;;;39.90;21.78;98398.63;6216615;23;20196;-94
2022/08/17 10:20:35;;;;;;;3.38;1.52;;;;;;;39.54;21.45;98394.50;6189979;23;20190;-91
2022/08/17 10:29:11;;;;;;;2.92;1.65;;;;;;;40.36;20.40;98385.28;6215791;23;20162;-91
2022/08/17 10:31:48;;;;;;;2.88;1.45;;;;;;;40.40;21.30;98382.78;6095858;23;20156;-91
2022/08/17 10:34:25;;;;;;;3.25;1.40;;;;;;;40.18;20.45;98383.28;6173695;23;20185;-91
2022/08/17 10:37:15;;;;;;;5.45;1.73;;;;;;;40.27;20.51;98380.72;6189322;23;20167;-92
2022/08/17 10:40:08;;;;;;;3.28;1.80;;;;;;;40.23;20.68;98377.72;6187756;23;20154;-93
2022/08/17 10:42:44;;;;;;;2.97;1.70;;;;;;;39.66;20.12;98385.91;6189378;23;20157;-92
2022/08/17 10:45:44;;;;;;;7.07;2.28;;;;;;;39.87;20.10;98366.25;6214478;23;20137;-90
2022/08/17 10:48:11;;;;;;;2.75;1.30;;;;;;;40.22;20.39;98372.53;6188188;23;20170;-92
2022/08/17 10:50:56;;;;;;;4.68;1.75;;;;;;;40.02;19.06;98364.50;6189873;23;20663;-92
2022/08/17 10:53:31;;;;;;;3.35;1.52;;;;;;;40.23;19.83;98363.16;6190453;23;20460;-90
2022/08/17 10:56:35;;;;;;;4.25;1.38;;;;;;;40.54;19.52;98366.44;6189686;23;20157;-91
2022/08/17 10:59:00;;;;;;;2.85;1.48;;;;;;;39.87;20.12;98359.94;6190823;23;20620;-93
2022/08/17 11:01:36;;;;;;;4.05;1.77;;;;;;;40.14;20.86;98360.25;6215744;23;20154;-94
2022/08/17 11:04:41;;;;;;;2.60;1.65;;;;;;;40.51;20.63;98356.03;6216921;23;20208;-91
2022/08/17 11:07:33;;;;;;;2.25;1.38;;;;;;;40.88;19.17;98358.88;6187555;23;20192;-91
2022/08/17 11:10:32;;;;;;;2.35;1.08;;;;;;;41.17;20.07;98364.25;6124552;23;20154;-91
2022/08/17 11:13:04;;;;;;;5.60;1.58;;;;;;;41.32;19.04;98353.06;6189528;23;20142;-90
2022/08/17 11:15:58;;;;;;;2.30;1.13;;;;;;;41.30;19.04;98349.75;6189434;23;20162;-88
2022/08/17 11:18:36;;;;;;;3.67;1.73;;;;;;;41.34;18.73;98357.13;6215532;23;20164;-92
2022/08/17 11:21:26;;;;;;;3.38;1.70;;;;;;;41.21;19.65;98349.59;6192107;23;20160;-90
2022/08/17 11:24:14;;;;;;;2.20;1.40;;;;;;;41.24;19.39;98351.78;6217998;23;20170;-92
2022/08/17 11:26:46;;;;;;;3.28;1.65;;;;;;;41.36;19.48;98346.66;6218026;23;20213;-91
2022/08/17 11:29:26;;;;;;;3.72;1.55;;;;;;;41.13;18.59;98346.69;6217566;23;20141;-92
2022/08/17 11:32:29;;;;;;;2.20;1.30;;;;;;;41.31;17.99;98343.97;6217909;23;20154;-90
2022/08/17 11:35:10;;;;;;;1.95;1.30;;;;;;;41.13;18.77;98335.69;6173594;23;20507;-91
2022/08/17 11:37:55;;;;;;;2.45;1.27;;;;;;;41.63;18.58;98341.25;6218102;23;20134;-90
2022/08/17 11:40:55;;;;;;;2.97;1.45;;;;;;;41.74;18.28;98321.84;6217279;23;20188;-91
2022/08/17 11:43:56;;;;;;;4.60;1.70;;;;;;;41.61;18.86;98324.25;6156719;23;20225;-89
2022/08/17 11:52:53;;;;;;;1.90;1.13;;;;;;;41.54;16.91;98329.28;6217437;23;20149;-93
2022/08/17 11:55:31;;;;;;;2.10;1.20;;;;;;;41.31;18.15;98324.72;6217892;23;20154;-89
2022/08/17 11:58:00;;;;;;;2.28;1.15;;;;;;;41.44;17.40;98318.47;6217214;23;20218;-89
2022/08/17 12:01:10;;;;;;;2.50;1.30;;;;;;;41.47;17.93;98323.38;6217218;23;20295;-90
2022/08/17 12:03:41;;;;;;;4.05;1.25;;;;;;;41.29;16.98;98315.94;6217950;23;20453;-90
2022/08/17 12:06:19;;;;;;;3.15;1.40;;;;;;;41.40;17.28;98309.19;6217884;23;20141;-92
2022/08/17 12:08:59;;;;;;;3.33;1.63;;;;;;;41.47;17.40;98314.28;6217918;23;20505;-89
2022/08/17 12:11:43;;;;;;;2.47;1.50;;;;;;;41.71;17.66;98294.88;6217435;23;20138;-91
2022/08/17 12:14:15;;;;;;;2.63;1.40;;;;;;;41.97;17.86;98301.59;6217349;23;20514;-90
2022/08/17 12:16:42;;;;;;;5.25;1.70;;;;;;;41.71;17.76;98294.88;6217094;23;20463;-91
2022/08/17 12:19:18;;;;;;;2.60;1.42;;;;;;;41.78;17.99;98301.66;6190896;23;20557;-92
2022/08/17 12:22:00;;;;;;;3.50;1.40;;;;;;;41.54;16.74;98312.78;6217406;23;20606;-90
2022/08/17 12:24:35;;;;;;;2.05;1.27;;;;;;;41.42;16.81;98308.88;6190735;23;20212;-91
2022/08/17 12:27:04;;;;;;;3.00;1.55;;;;;;;41.35;17.18;98309.28;6217328;23;20183;-88
2022/08/17 12:29:31;;;;;;;1.92;1.10;;;;;;;41.76;16.64;98303.91;6216895;23;20484;-90
2022/08/17 12:31:57;;;;;;;3.15;1.50;;;;;;;42.03;16.39;98295.69;6216901;23;20157;-90
2022/08/17 12:34:43;;;;;;;2.08;1.30;;;;;;;42.09;15.43;98297.22;6216820;23;20142;-91
2022/08/17 12:37:19;;;;;;;3.10;1.63;;;;;;;42.14;15.70;98288.09;6216997;23;20134;-89
2022/08/17 12:40:21;;;;;;;3.45;1.52;;;;;;;42.35;16.89;98289.28;6217198;23;20133;-92
2022/08/17 12:43:20;;;;;;;1.63;1.08;;;;;;;42.07;16.50;98276.59;6217442;23;20209;-92
2022/08/17 12:45:59;;;;;;;1.73;0.98;;;;;;;41.80;16.56;98284.84;6217356;23;20146;-91
2022/08/17 12:48:27;;;;;;;2.30;1.30;;;;;;;41.85;17.64;98279.25;6217080;23;20130;-92
2022/08/17 12:51:00;;;;;;;2.45;1.20;;;;;;;41.68;17.29;98269.59;6216875;23;20175;-92
2022/08/17 12:53:28;;;;;;;4.95;2.15;;;;;;;41.89;16.87;98275.56;6217088;23;20141;-87
2022/08/17 12:55:56;;;;;;;2.15;1.08;;;;;;;42.02;16.28;98274.78;6216691;23;20586;-90
2022/08/17 12:58:30;;;;;;;2.95;1.40;;;;;;;42.16;16.83;98269.31;6216551;23;20150;-88
2022/08/17 13:01:13;;;;;;;5.90;1.40;;;;;;;42.55;16.68;98268.78;6216618;23;20554;-89
2022/08/17 13:03:49;;;;;;;2.38;1.33;;;;;;;42.94;15.83;98254.41;6216892;23;20169;-92
2022/08/17 13:06:36;;;;;;;3.58;2.03;;;;;;;42.42;16.42;98273.16;6190318;23;20704;-89
2022/08/17 13:09:14;;;;;;;2.45;1.30;;;;;;;41.82;16.68;98279.84;6217031;23;20134;-90
2022/08/17 13:11:52;;;;;;;2.05;0.95;;;;;;;42.07;17.20;98271.09;6190338;23;20456;-90
2022/08/17 13:14:17;;;;;;;2.95;1.30;;;;;;;42.23;16.24;98272.44;6216463;23;20137;-89
2022/08/17 13:17:00;;;;;;;3.33;1.30;;;;;;;42.33;16.38;98266.72;6217112;23;20145;-89
2022/08/17 13:19:29;;;;;;;2.53;1.40;;;;;;;42.69;16.52;98262.09;6190187;23;20166;-90
2022/08/17 13:22:00;;;;;;;3.08;1.60;;;;;;;42.87;16.14;98273.31;6216228;23;20146;-89
2022/08/17 13:24:31;;;;;;;3.35;1.45;;;;;;;42.25;16.28;98270.19;6216368;23;20177;-92
2022/08/17 13:27:11;;;;;;;3.05;1.42;;;;;;;41.97;16.55;98274.06;6216487;23;20138;-92
2022/08/17 13:29:43;;;;;;;4.13;1.58;;;;;;;41.55;16.04;98275.91;6217082;23;20142;-91
2022/08/17 13:32:13;;;;;;;3.30;1.30;;;;;;;41.58;16.62;98274.47;6215519;23;20181;-93
2022/08/17 13:34:43;;;;;;;2.40;1.20;;;;;;;41.60;16.40;98270.31;6190055;23;20164;-90
2022/08/17 13:37:29;;;;;;;3.90;1.10;;;;;;;41.97;16.60;98257.53;6191044;23;20181;-88
2022/08/17 13:40:20;;;;;;;4.03;1.55;;;;;;;42.23;16.29;98264.19;6216894;23;20165;-90
2022/08/17 13:42:52;;;;;;;2.28;1.30;;;;;;;42.03;16.55;98270.91;6215815;23;20157;-88
2022/08/17 13:45:27;;;;;;;1.90;1.30;;;;;;;41.86;17.08;98275.34;6215891;23;20229;-90
2022/08/17 13:48:07;;;;;;;2.25;1.30;;;;;;;42.25;17.28;98262.75;6216514;23;20518;-90
2022/08/17 13:50:42;;;;;;;2.13;1.30;;;;;;;41.93;16.61;98270.28;6189769;23;20173;-92
2022/08/17 13:53:31;;;;;;;2.58;1.65;;;;;;;41.84;17.86;98270.16;6216125;23;20216;-91
2022/08/17 13:55:59;;;;;;;4.00;1.55;;;;;;;41.71;19.24;98264.59;6216771;23;20160;-88